首页
METAR-TAF:

METAR-TAF

机场 :

渥太华麦克唐纳-卡蒂埃国际机场

渥太華, 安大略省, 加拿大

纬度: 45-19N, 经度: 075-40W, 海拔: 116米

当前天气观测

该预报发布于37分钟前的12:00 UTC
风速9节,风向
温度 17°C
湿度 88%
气压 1015 hPa
能見度: 24.1公里
多云层高于24000英尺

METAR: CYOW 181200Z 35009KT 15SM BKN240 17/15 A2996 RMK CI7 SLP146 DENSITY ALT 700FT

时间: 08:37 (12:37 UTC)

预报

该预报发布于56分钟前的11:41 UTC
预报有效从18日的 12点(UTC)到 19日的 12点(UTC)
风速10节,风向
能見度: 10公里
少量云层高于1200英尺
多云层高于23000英尺
从 18日的 1600点(UTC)
风速10节,风向北转东北
能見度: 10公里
多云层高于3000英尺
短暂存在
从 18日的 16点(UTC)到 18日的 18点(UTC)
多云层高于2000英尺
从 18日的 2300点(UTC)
风速6节,风向
能見度: 10公里
少量云层高于4000英尺
成为
从 19日的 08点(UTC)到 19日的 10点(UTC)
风速6节,风向东北

TAF: CYOW 181141Z 1812/1912 01010KT P6SM FEW012 BKN230 FM181600 02010KT P6SM BKN030 TEMPO 1816/1818 BKN020 FM182300 35006KT P6SM FEW040 BECMG 1908/1910 04006KT RMK NXT FCST BY 181500Z

超过4000个机场的气象观测和天气预报(METAR&TAF报告)。

可查询的气象台以黄色和红色小点在地图上表示。

将鼠标移到小点上方,可查看气象台名称。

然后点击查看天气观测和预报。

如需切换地图:点击带黑十字的绿色按钮放大地图;点击带横线的绿色按钮缩小地图;或者点击绿色箭头查看邻近地区的地图。


METAR-TAF: